Navistar International Corp (NAV) Latest Bloomsberg Price


Mffais Ranking #2202 Overall / #9 Industry
Industry: Commercial Vehicles

Number of Companies: 106 (Ranking #1579 Overall/#8 Industry)
Inflow: $ 24,311 (K) (Ranking #1661 Overall/#9 Industry)
Outflow: $ -57,989 (K)
Mffais Flow: $ -33,678 (K) (Ranking #2202 Overall/#9 Industry)


Receive a FREE weekly executive review of stocks moving into the top 10, taking the top industy spot or moving up within their industry. Sent directly to your Inbox every Saturday. Sign up today and get last week's review immediately sent to you.

We value and respect your privacy. Please read our Terms and Conditions which states our firm commitment to your privacy. Your email address will not be shared with a third party, nor will it be sold or used for purposes other than subscription for the weekly review.

Owner CPOR Shares Action Qty Chg Invested (K) Total Current Value (K)
Scopus Asset Management L P 2016-09-30 375,000 New Holding 375,000 $ 4,665 $ 4,665
Tricadia Capital Management Llc 2016-09-30 276,800 New Holding 276,800 $ 3,443 $ 3,443
Stanley Capital Management Llc 2016-09-30 274,966 New Holding 274,966 $ 3,420 $ 3,420
Capstone Investment Advisors Llc 2016-09-30 195,100 Added More 144,400 $ 1,796 $ 2,427
Peak6 Investments L P 2016-09-30 138,186 Added More 113,086 $ 1,406 $ 1,719
Verition Fund Management Llc 2016-09-30 200,000 Added More 100,000 $ 1,244 $ 2,488
Pomelo Capital Llc 2016-09-30 4,227,200 Added More 97,900 $ 1,217 $ 52,586
Voloridge Investment Management Llc 2016-09-30 81,764 New Holding 81,764 $ 1,017 $ 1,017
Sg Americas Securities Llc 2016-09-30 78,234 New Holding 78,234 $ 973 $ 973
Moore Capital Management Lp 2016-09-30 60,000 New Holding 60,000 $ 746 $ 746
Walleye Trading Llc 2016-09-30 144,600 Added More 59,200 $ 736 $ 1,798
J Goldman Co Lp 2016-09-30 41,400 New Holding 41,400 $ 515 $ 515
Laurion Capital Management Lp 2016-09-30 55,000 Added More 35,900 $ 446 $ 684
Engineers Gate Manager Lp 2016-09-30 34,280 New Holding 34,280 $ 426 $ 426
Legal General Group Plc 2016-09-30 202,557 Added More 34,229 $ 425 $ 2,519
Menta Capital Llc 2016-09-30 49,751 Added More 31,051 $ 386 $ 618
Pdt Partners Llc 2016-09-30 215,700 Added More 23,300 $ 289 $ 2,683
Cubist Systematic Strategies Llc 2016-09-30 18,266 New Holding 18,266 $ 227 $ 227
Parametrica Management Ltd 2016-09-30 14,060 New Holding 14,060 $ 174 $ 174
Point72 Asia Hong Kong Ltd 2016-09-30 13,400 New Holding 13,400 $ 166 $ 166
Rhumbline Advisers 2016-09-30 64,004 Added More 9,969 $ 124 $ 796
Capstone Financial Advisors Inc 2016-09-30 8,825 New Holding 8,825 $ 109 $ 109
Teachers Advisors Inc 2016-09-30 83,464 Added More 6,284 $ 78 $ 1,038
Springbok Capital Management Llc 2016-09-30 5,600 New Holding 5,600 $ 69 $ 69
Northern Trust Corp 2016-09-30 571,703 Added More 4,919 $ 61 $ 7,111
Dimensional Fund Advisors Lp 2016-09-30 113,427 Added More 4,800 $ 59 $ 1,411
Aperio Group Llc 2016-09-30 22,830 Added More 2,210 $ 27 $ 284
Simplex Trading Llc 2016-09-30 1,507 New Holding 1,507 $ 18 $ 18
California State Teachers Retirement System 2016-09-30 104,832 Added More 1,000 $ 12 $ 1,304
Gamco Investors Inc Et Al 2016-09-30 6,923,875 Added More 738 $ 9 $ 86,133
Cwm Llc 2016-09-30 500 New Holding 500 $ 6 $ 6
Zurcher Kantonalbank Zurich Cantonalbank 2016-09-30 1,910 Added More 478 $ 5 $ 23
Northwestern Mutual Wealth Management Co 2016-09-30 188 New Holding 188 $ 2 $ 2
American International Group Inc 2016-09-30 28,549 Added More 43 $ 0 $ 355
Ftb Advisors Inc 2016-09-30 16 New Holding 16 $ 0 $ 0
Country Trust Bank 2016-09-30 5 New Holding 5 $ 0 $ 0
Css Llc Il 2016-09-30 11,300 No Change 0 $ 0 $ 140
Synovus Financial Corp 2016-09-30 200 No Change 0 $ 0 $ 2
Fifth Third Bancorp 2016-09-30 210 No Change 0 $ 0 $ 2
Us Bancorp De 2016-09-30 8,451 No Change 0 $ 0 $ 105
Amica Mutual Insurance Co 2016-09-30 31,539 No Change 0 $ 0 $ 392
Amica Pension Fund Board Of Trustees 2016-09-30 18,995 No Change 0 $ 0 $ 236
Hsbc Holdings Plc 2016-09-30 36,181 No Change 0 $ 0 $ 450
Badgley Phelps Bell Inc 2016-09-30 33,300 No Change 0 $ 0 $ 414
Icahn Carl C 2016-09-30 16,272,524 No Change 0 $ 0 $ 202,430
Ladenburg Thalmann Financial Services Inc 2016-09-30 266 No Change 0 $ 0 $ 3
Diam Co Ltd 2016-09-30 30,347 No Change 0 $ 0 $ 377
Pillar Pacific Capital Management Llc 2016-09-30 15,600 No Change 0 $ 0 $ 194
Mhr Fund Management Llc 2016-09-30 16,225,000 No Change 0 $ 0 $ 201,839
Msi Financial Services Inc 2016-09-30 332 No Change 0 $ 0 $ 4
Teton Advisors Inc 2016-09-30 20,000 No Change 0 $ 0 $ 248
Benjamin F Edwards Company Inc 2016-09-30 40 No Change 0 $ 0 $ 0
Dekabank Deutsche Girozentrale 2016-09-30 11,580 No Change 0 $ 0 $ 144
Old Mutual Customised Solutions Proprietary Ltd 2016-09-30 8,500 No Change 0 $ 0 $ 105
Gradient Investments Llc 2016-09-30 20 No Change 0 $ 0 $ 0
State Of Tennessee Treasury Department 2016-09-30 15,000 No Change 0 $ 0 $ 186
Amica Retiree Medical Trust 2016-09-30 2,952 No Change 0 $ 0 $ 36
Compagnie Lombard Odier Scma 2016-09-30 200 No Change 0 $ 0 $ 2
Pacer Advisors Inc 2016-09-30 10,910 No Change 0 $ 0 $ 135
Ifp Advisors Inc 2016-09-30 546 No Change 0 $ 0 $ 6
Quadrant Capital Group Llc 2016-09-30 96 No Change 0 $ 0 $ 1
Stokes Hubbell Capital Management Llc 2016-09-30 11,005 No Change 0 $ 0 $ 136
Bronfman E L Rothschild L P 2016-09-30 201 No Change 0 $ 0 $ 2
Mosaic Family Wealth Llc 2016-09-30 10 No Change 0 $ 0 $ 0
Pnc Financial Services Group Inc 2016-09-30 460 Sold Some -60 $ -0 $ 5
Checchi Capital Advisers Llc 2016-09-30 0 Sold All -73 $ -0 $ 0
Blackrock Inc 2016-09-30 18,236 Sold Some -76 $ -0 $ 226
North Star Investment Management Corp 2016-09-30 215 Sold Some -85 $ -1 $ 2
Advisor Group Inc 2016-09-30 10 Sold Some -100 $ -1 $ 0
Sandy Spring Bank 2016-09-30 0 Sold All -250 $ -3 $ 0
Creative Planning 2016-09-30 11,274 Sold Some -1,882 $ -23 $ 140
Swiss National Bank 2016-09-30 74,800 Sold Some -2,600 $ -32 $ 930
Meeder Asset Management Inc 2016-09-30 0 Sold All -3,240 $ -40 $ 0
Kcg Holdings Inc 2016-09-30 19,841 Sold Some -3,574 $ -44 $ 246
Blackrock Investment Management Llc 2016-09-30 202,821 Sold Some -4,621 $ -57 $ 2,523
Tower Research Capital Llc Trc 2016-09-30 1,136 Sold Some -4,964 $ -61 $ 14
Teacher Retirement System Of Texas 2016-09-30 0 Sold All -6,087 $ -75 $ 0
Nomura Asset Management Co Ltd 2016-09-30 0 Sold All -6,200 $ -77 $ 0
Cutler Group Lp 2016-09-30 57,000 Sold Some -9,900 $ -123 $ 709
Group One Trading L P 2016-09-30 0 Sold All -13,519 $ -168 $ 0
Mariner Wealth Advisors Llc 2016-09-30 0 Sold All -14,281 $ -177 $ 0
New York State Common Retirement Fund 2016-09-30 84,306 Sold Some -15,763 $ -196 $ 1,048
Timber Hill Llc 2016-09-30 0 Sold All -16,235 $ -201 $ 0
Horizon Kinetics Llc 2016-09-30 18,262 Sold Some -16,666 $ -207 $ 227
Convergence Investment Partners Llc 2016-09-30 81,071 Sold Some -17,749 $ -220 $ 1,008
Quantitative Investment Management Llc 2016-09-30 0 Sold All -19,100 $ -237 $ 0
Aviva Plc 2016-09-30 0 Sold All -20,000 $ -248 $ 0
Stoneridge Investment Partners Llc 2016-09-30 53,293 Sold Some -23,593 $ -293 $ 662
Wedbush Securities Inc 2016-09-30 0 Sold All -24,391 $ -303 $ 0
Jane Street Group Llc 2016-09-30 21,600 Sold Some -31,900 $ -396 $ 268
First Heartland Consultants Inc 2016-09-30 57,100 Sold Some -39,000 $ -485 $ 710
Oppenheimer Co Inc 2016-09-30 11,456 Sold Some -43,624 $ -542 $ 142
Raymond James Financial Services Advisors Inc 2016-09-30 0 Sold All -51,001 $ -634 $ 0
Pacific Global Investment Management Co 2016-09-30 412,530 Sold Some -69,735 $ -867 $ 5,131
Alambic Investment Management L P 2016-09-30 150,136 Sold Some -70,600 $ -878 $ 1,867
Nationwide Fund Advisors 2016-09-30 32,590 Sold Some -80,841 $ -1,005 $ 405
Emerald Acquisition Ltd 2016-09-30 8,500 Sold Some -96,171 $ -1,196 $ 105
National Planning Corp 2016-09-30 0 Sold All -103,975 $ -1,293 $ 0
Spot Trading L L C 2016-09-30 55,600 Sold Some -112,200 $ -1,395 $ 691
Jacobs Levy Equity Management Inc 2016-09-30 276,342 Sold Some -128,940 $ -1,604 $ 3,437
Gabelli Funds Llc 2016-09-30 2,909,500 Sold Some -132,374 $ -1,646 $ 36,194
Vollero Beach Capital Partners Llc 2016-09-30 0 Sold All -138,141 $ -1,718 $ 0
Parametric Portfolio Associates Llc 2016-09-30 155,401 Sold Some -182,420 $ -2,269 $ 1,933
Private Management Group Inc 2016-09-30 853,774 Sold Some -249,040 $ -3,098 $ 10,620
Towle Co 2016-09-30 1,045,595 Sold Some -463,965 $ -5,771 $ 13,007
Hotchkis Wiley Capital Management Llc 2016-09-30 5,552,062 Sold Some -2,442,630 $ -30,386 $ 69,067